Time;durP1;ratioP1;P1;durP2;ratioP2;P2;SDS_P1;SDS_P2;PMS_P1;PMS_P2;Temp;Humidity;BMP_temperature;BMP_pressure;BME280_temperature;BME280_humidity;BME280_pressure;Samples;Min_cycle;Max_cycle;Signal;HPM_P1;HPM_P2
2024/01/08 00:01:08;;;;;;;6.73;2.53;;;2.70;1.00;;;;;;5032836;28;20667;-74
2024/01/08 00:03:38;;;;;;;12.47;2.60;;;2.70;1.00;;;;;;5032809;28;20166;-74
2024/01/08 00:06:04;;;;;;;7.57;2.27;;;2.70;1.00;;;;;;5036189;28;20644;-74
2024/01/08 00:08:30;;;;;;;8.63;2.70;;;2.70;1.00;;;;;;5049469;28;20183;-74
2024/01/08 00:10:55;;;;;;;10.17;2.30;;;2.60;1.00;;;;;;5040941;28;20188;-74
2024/01/08 00:13:21;;;;;;;9.20;2.50;;;2.60;1.00;;;;;;5032721;28;20208;-74
2024/01/08 00:15:47;;;;;;;8.40;2.53;;;2.60;1.00;;;;;;5050974;28;20335;-75
2024/01/08 00:18:12;;;;;;;7.30;2.60;;;2.60;1.00;;;;;;5052297;28;20169;-74
2024/01/08 00:20:38;;;;;;;8.00;2.67;;;2.60;1.00;;;;;;5052254;28;20165;-74
2024/01/08 00:23:03;;;;;;;7.67;2.70;;;2.50;1.00;;;;;;5052321;28;20584;-74
2024/01/08 00:25:29;;;;;;;7.37;2.63;;;2.60;1.00;;;;;;5052230;28;20640;-74
2024/01/08 00:27:56;;;;;;;11.67;2.70;;;2.60;1.00;;;;;;5043134;28;20174;-74
2024/01/08 00:30:22;;;;;;;7.23;2.20;;;2.50;1.00;;;;;;5048719;28;20267;-74
2024/01/08 00:32:47;;;;;;;7.83;2.70;;;2.50;44.60;;;;;;5051935;28;20177;-75
2024/01/08 00:35:14;;;;;;;6.97;2.47;;;2.50;76.80;;;;;;5051941;28;20209;-74
2024/01/08 00:37:41;;;;;;;5.70;2.47;;;2.50;95.30;;;;;;5051938;28;20575;-74
2024/01/08 00:40:08;;;;;;;5.80;2.60;;;2.40;99.90;;;;;;5051818;28;20659;-73
2024/01/08 00:42:35;;;;;;;7.40;2.70;;;2.50;99.90;;;;;;5051864;28;20176;-74
2024/01/08 00:45:01;;;;;;;7.63;2.33;;;2.50;99.90;;;;;;5042234;28;20181;-74
2024/01/08 00:47:27;;;;;;;8.43;2.37;;;2.50;99.90;;;;;;5051562;28;20219;-74
2024/01/08 00:49:53;;;;;;;13.17;2.53;;;2.50;99.90;;;;;;5045436;28;20641;-74
2024/01/08 00:52:18;;;;;;;8.00;2.80;;;2.50;99.90;;;;;;5030186;28;20241;-74
2024/01/08 00:54:44;;;;;;;5.47;2.63;;;2.60;99.90;;;;;;5031471;28;20254;-74
2024/01/08 00:57:10;;;;;;;9.07;2.60;;;2.60;99.90;;;;;;5031636;28;20308;-74
2024/01/08 00:59:35;;;;;;;8.73;2.43;;;2.70;99.90;;;;;;5031572;28;20304;-74
2024/01/08 01:02:01;;;;;;;4.83;2.30;;;2.60;99.90;;;;;;5037121;28;20256;-74
2024/01/08 01:04:27;;;;;;;4.77;2.27;;;2.50;99.90;;;;;;5051490;28;20189;-75
2024/01/08 01:06:52;;;;;;;8.07;2.43;;;2.50;99.90;;;;;;5051289;28;20196;-74
2024/01/08 01:09:18;;;;;;;7.53;2.30;;;2.50;99.90;;;;;;5051186;28;20514;-74
2024/01/08 01:11:43;;;;;;;6.23;2.37;;;2.50;99.90;;;;;;5051066;28;20180;-74
2024/01/08 01:14:09;;;;;;;5.47;2.47;;;2.40;99.90;;;;;;5051188;28;20197;-74
2024/01/08 01:16:35;;;;;;;10.70;2.57;;;2.40;99.90;;;;;;5051252;28;20176;-74
2024/01/08 01:19:01;;;;;;;9.50;2.40;;;2.40;99.90;;;;;;5051007;28;20165;-74
2024/01/08 01:21:28;;;;;;;6.73;2.77;;;2.40;99.90;;;;;;5051432;28;20234;-74
2024/01/08 01:23:54;;;;;;;7.40;2.50;;;2.40;99.90;;;;;;5051107;28;20177;-74
2024/01/08 01:26:20;;;;;;;5.13;2.57;;;2.50;99.90;;;;;;5050589;28;20170;-74
2024/01/08 01:28:46;;;;;;;11.33;2.70;;;2.50;99.90;;;;;;5041531;28;20566;-74
2024/01/08 01:31:12;;;;;;;7.37;2.43;;;2.40;99.90;;;;;;5032300;28;20223;-74
2024/01/08 01:33:38;;;;;;;6.37;2.27;;;2.40;99.90;;;;;;5049490;28;20180;-74
2024/01/08 01:36:05;;;;;;;13.00;2.60;;;2.30;99.90;;;;;;5047842;28;20201;-74
2024/01/08 01:38:31;;;;;;;5.20;2.60;;;2.30;99.90;;;;;;5037121;28;20178;-74
2024/01/08 01:40:57;;;;;;;6.30;2.40;;;2.30;99.90;;;;;;5031208;28;20178;-74
2024/01/08 01:43:24;;;;;;;5.17;2.17;;;2.30;99.90;;;;;;5046256;28;20259;-74
2024/01/08 01:45:53;;;;;;;7.13;2.60;;;2.30;99.90;;;;;;5046931;28;20204;-74
2024/01/08 01:48:20;;;;;;;6.73;2.40;;;2.20;99.90;;;;;;5051071;28;20176;-72
2024/01/08 01:50:46;;;;;;;6.93;2.53;;;2.10;99.90;;;;;;5050947;28;20274;-73
2024/01/08 01:53:13;;;;;;;7.73;2.37;;;2.10;99.90;;;;;;5051073;28;20169;-74
2024/01/08 01:55:39;;;;;;;7.70;2.13;;;2.10;99.90;;;;;;5051081;28;20308;-74
2024/01/08 01:58:06;;;;;;;6.10;2.37;;;2.00;99.90;;;;;;5051199;28;20195;-74
2024/01/08 02:00:32;;;;;;;4.87;1.93;;;2.00;99.90;;;;;;5051152;28;20165;-73
2024/01/08 02:02:59;;;;;;;4.97;2.30;;;2.00;99.90;;;;;;5050775;28;20180;-73
2024/01/08 02:05:25;;;;;;;9.27;2.03;;;2.00;99.90;;;;;;5050858;28;20177;-73
2024/01/08 02:07:52;;;;;;;4.93;2.33;;;2.00;99.90;;;;;;5050928;28;20169;-73
2024/01/08 02:10:19;;;;;;;6.50;2.23;;;2.00;99.90;;;;;;5050809;28;20227;-73
2024/01/08 02:12:45;;;;;;;7.20;2.07;;;2.10;99.90;;;;;;5050776;28;20528;-73
2024/01/08 02:15:10;;;;;;;8.30;2.23;;;2.10;99.90;;;;;;5050725;28;20220;-73
2024/01/08 02:17:38;;;;;;;5.00;2.47;;;2.10;99.90;;;;;;5050726;28;20169;-74
2024/01/08 02:20:04;;;;;;;5.17;2.10;;;2.10;99.90;;;;;;5050632;28;20177;-73
2024/01/08 02:22:30;;;;;;;5.70;2.10;;;2.10;99.90;;;;;;5050648;28;20184;-74
2024/01/08 02:24:55;;;;;;;3.53;2.33;;;2.20;99.90;;;;;;5050788;28;20177;-73
2024/01/08 02:27:21;;;;;;;6.03;1.90;;;2.20;99.90;;;;;;5050653;28;20165;-74
2024/01/08 02:29:47;;;;;;;6.93;2.57;;;2.40;99.90;;;;;;5050514;28;20226;-74
2024/01/08 02:32:13;;;;;;;4.80;2.30;;;2.40;99.90;;;;;;5050558;28;20176;-74
2024/01/08 02:34:39;;;;;;;7.93;2.30;;;2.50;99.90;;;;;;5050562;28;20263;-73
2024/01/08 02:37:05;;;;;;;7.50;1.97;;;2.50;99.90;;;;;;5052774;28;20177;-74
2024/01/08 02:39:31;;;;;;;6.37;2.33;;;2.50;99.90;;;;;;5054014;28;20188;-74
2024/01/08 02:41:56;;;;;;;8.60;2.20;;;2.40;99.90;;;;;;5054139;28;20660;-74
2024/01/08 02:44:22;;;;;;;3.80;2.17;;;2.40;99.90;;;;;;5053328;28;20184;-74
2024/01/08 02:46:47;;;;;;;7.80;2.17;;;2.30;99.90;;;;;;5049582;28;20641;-73
2024/01/08 02:49:13;;;;;;;6.23;2.50;;;2.30;99.90;;;;;;5037893;28;20231;-74
2024/01/08 02:51:39;;;;;;;4.30;1.70;;;2.30;99.90;;;;;;5033768;28;20700;-73
2024/01/08 02:54:04;;;;;;;2.77;1.80;;;2.20;99.90;;;;;;5037791;28;20283;-74
2024/01/08 02:56:30;;;;;;;6.73;2.13;;;2.10;99.90;;;;;;5034357;28;20189;-74
2024/01/08 02:58:56;;;;;;;6.23;1.80;;;2.10;99.90;;;;;;5037712;28;20174;-74
2024/01/08 03:01:21;;;;;;;3.73;1.80;;;2.10;99.90;;;;;;5053334;28;20256;-74
2024/01/08 03:03:47;;;;;;;5.90;1.83;;;2.10;99.90;;;;;;5053713;28;20169;-74
2024/01/08 03:06:13;;;;;;;7.13;1.97;;;2.10;99.90;;;;;;5054122;28;20181;-74
2024/01/08 03:08:38;;;;;;;6.43;2.00;;;2.00;99.90;;;;;;5053697;28;20248;-74
2024/01/08 03:11:04;;;;;;;5.03;2.00;;;2.00;99.90;;;;;;5052239;28;20193;-73
2024/01/08 03:13:30;;;;;;;6.03;1.70;;;2.00;99.90;;;;;;5053565;28;20169;-74
2024/01/08 03:15:55;;;;;;;6.23;1.87;;;1.90;99.90;;;;;;5053356;28;20216;-74
2024/01/08 03:18:21;;;;;;;5.57;1.80;;;1.90;99.90;;;;;;5050771;28;20248;-74
2024/01/08 03:20:47;;;;;;;4.60;1.73;;;1.90;99.90;;;;;;5041872;28;20197;-73
2024/01/08 03:23:12;;;;;;;5.07;1.70;;;1.90;99.90;;;;;;5053135;28;20179;-74
2024/01/08 03:25:38;;;;;;;4.13;1.67;;;1.90;99.90;;;;;;5040481;28;20268;-74
2024/01/08 03:28:04;;;;;;;5.33;1.90;;;1.80;99.90;;;;;;5065459;28;20625;-74
2024/01/08 03:30:29;;;;;;;4.90;2.00;;;1.80;99.90;;;;;;5052978;28;20610;-74
2024/01/08 03:32:55;;;;;;;4.97;1.60;;;1.70;99.90;;;;;;5047436;28;20180;-74
2024/01/08 03:35:21;;;;;;;5.30;2.20;;;1.70;99.90;;;;;;5046150;28;20213;-73
2024/01/08 03:37:46;;;;;;;8.27;1.80;;;1.60;99.90;;;;;;5036467;28;20633;-74
2024/01/08 03:40:12;;;;;;;5.43;1.90;;;1.50;99.90;;;;;;5042239;28;20177;-73
2024/01/08 03:42:38;;;;;;;8.33;1.80;;;1.50;99.90;;;;;;5052771;28;20177;-73
2024/01/08 03:45:04;;;;;;;5.97;2.33;;;1.50;99.90;;;;;;5045472;28;20184;-73
2024/01/08 03:47:30;;;;;;;5.53;1.87;;;1.40;99.90;;;;;;5035826;28;20182;-74
2024/01/08 03:49:57;;;;;;;6.47;1.87;;;1.50;99.90;;;;;;5032661;28;20537;-74
2024/01/08 03:52:25;;;;;;;4.33;1.60;;;1.40;99.90;;;;;;5031987;28;20600;-74
2024/01/08 03:54:51;;;;;;;3.40;1.60;;;1.40;99.90;;;;;;5049305;28;20224;-74
2024/01/08 03:57:16;;;;;;;3.70;1.87;;;1.40;99.90;;;;;;5032885;28;20186;-74
2024/01/08 03:59:43;;;;;;;4.10;1.80;;;1.30;99.90;;;;;;5032919;28;20181;-74
2024/01/08 04:02:09;;;;;;;3.27;1.77;;;1.40;99.90;;;;;;5032765;28;20206;-73
2024/01/08 04:04:34;;;;;;;8.43;2.10;;;1.30;99.90;;;;;;5047729;28;20207;-74
2024/01/08 04:07:00;;;;;;;7.10;1.73;;;1.30;99.90;;;;;;5032983;28;20178;-75
2024/01/08 04:09:26;;;;;;;3.70;1.87;;;1.30;99.90;;;;;;5033051;28;20166;-74
2024/01/08 04:11:52;;;;;;;3.60;1.90;;;1.30;99.90;;;;;;5035000;28;20174;-74
2024/01/08 04:14:17;;;;;;;2.80;1.40;;;1.30;99.90;;;;;;5052235;28;20205;-74
2024/01/08 04:16:43;;;;;;;6.37;1.70;;;1.40;99.90;;;;;;5033673;28;20177;-74
2024/01/08 04:19:09;;;;;;;3.53;1.70;;;1.40;99.90;;;;;;5052284;28;20169;-74
2024/01/08 04:21:34;;;;;;;4.43;1.50;;;1.40;99.90;;;;;;5038109;28;20314;-73
2024/01/08 04:24:00;;;;;;;6.73;1.80;;;1.40;99.90;;;;;;5043976;28;20193;-74
2024/01/08 04:26:27;;;;;;;4.10;1.87;;;1.40;99.90;;;;;;5048147;28;20584;-74
2024/01/08 04:28:53;;;;;;;3.90;1.50;;;1.40;99.90;;;;;;5039434;28;20186;-74
2024/01/08 04:31:19;;;;;;;3.13;1.70;;;1.30;99.90;;;;;;5045691;28;20680;-74
2024/01/08 04:33:46;;;;;;;6.57;1.73;;;1.30;99.90;;;;;;5041455;28;20184;-74
2024/01/08 04:36:12;;;;;;;4.13;1.83;;;1.20;99.90;;;;;;5050638;28;20304;-74
2024/01/08 04:38:38;;;;;;;4.70;1.87;;;1.20;99.90;;;;;;5039198;28;20232;-74
2024/01/08 04:41:04;;;;;;;10.70;1.90;;;1.20;99.90;;;;;;5052035;28;20703;-73
2024/01/08 04:43:29;;;;;;;6.80;1.77;;;1.30;99.90;;;;;;5051771;28;20208;-73
2024/01/08 04:45:55;;;;;;;7.63;1.70;;;1.20;99.90;;;;;;5051888;28;20586;-73
2024/01/08 04:48:21;;;;;;;3.73;1.70;;;1.10;99.90;;;;;;5051780;28;20207;-73
2024/01/08 04:50:46;;;;;;;3.63;1.87;;;1.10;99.90;;;;;;5051680;28;20643;-73
2024/01/08 04:53:12;;;;;;;4.03;1.63;;;1.10;99.90;;;;;;5051737;28;20530;-73
2024/01/08 04:55:38;;;;;;;8.10;1.70;;;1.10;99.90;;;;;;5051553;28;20660;-74
2024/01/08 04:58:06;;;;;;;9.43;1.80;;;1.00;99.90;;;;;;5051679;28;20174;-74
2024/01/08 05:00:31;;;;;;;4.10;1.70;;;1.00;99.90;;;;;;5051377;28;20177;-74
2024/01/08 05:02:57;;;;;;;8.60;2.10;;;1.00;99.90;;;;;;5051505;28;20523;-74
2024/01/08 05:05:23;;;;;;;6.00;1.50;;;1.10;99.90;;;;;;5051548;28;20173;-74
2024/01/08 05:07:48;;;;;;;3.40;1.77;;;1.00;99.90;;;;;;5051358;28;20181;-74
2024/01/08 05:10:14;;;;;;;3.27;1.50;;;1.00;99.90;;;;;;5051552;28;20179;-74
2024/01/08 05:12:40;;;;;;;5.47;1.73;;;1.10;99.90;;;;;;5051356;28;20251;-74
2024/01/08 05:15:06;;;;;;;2.97;1.37;;;1.10;99.90;;;;;;5051225;28;20217;-74
2024/01/08 05:17:31;;;;;;;6.60;1.67;;;1.10;99.90;;;;;;5051344;28;20264;-74
2024/01/08 05:19:57;;;;;;;4.40;1.73;;;1.10;99.90;;;;;;5051477;28;20181;-74
2024/01/08 05:22:23;;;;;;;6.63;1.60;;;1.20;99.90;;;;;;5051357;28;20644;-72
2024/01/08 05:24:48;;;;;;;4.53;1.30;;;1.20;99.90;;;;;;5051368;28;20165;-74
2024/01/08 05:27:14;;;;;;;7.70;1.80;;;1.20;99.90;;;;;;5051261;28;20675;-74
2024/01/08 05:29:40;;;;;;;2.67;1.90;;;1.40;99.90;;;;;;5051222;28;20181;-74
2024/01/08 05:32:06;;;;;;;6.43;1.77;;;1.50;99.90;;;;;;5044729;28;20651;-74
2024/01/08 05:34:32;;;;;;;3.20;1.57;;;1.50;99.90;;;;;;5031226;28;20206;-72
2024/01/08 05:36:58;;;;;;;4.63;1.80;;;1.70;99.90;;;;;;5031238;28;20166;-72
2024/01/08 05:39:24;;;;;;;4.67;1.50;;;1.80;99.90;;;;;;5031197;28;20275;-72
2024/01/08 05:41:50;;;;;;;2.87;1.60;;;1.90;99.90;;;;;;5031334;28;20750;-72
2024/01/08 05:44:15;;;;;;;3.53;1.70;;;2.00;99.90;;;;;;5031108;28;20651;-72
2024/01/08 05:46:44;;;;;;;7.13;1.50;;;2.10;99.90;;;;;;5031093;28;20181;-72
2024/01/08 05:49:10;;;;;;;6.40;1.80;;;2.10;99.90;;;;;;5031220;28;20181;-72
2024/01/08 05:51:36;;;;;;;5.03;1.67;;;2.20;99.90;;;;;;5030916;28;20217;-72
2024/01/08 05:54:02;;;;;;;7.13;1.67;;;2.20;99.90;;;;;;5030942;28;20715;-72
2024/01/08 05:56:28;;;;;;;5.97;1.43;;;2.30;99.90;;;;;;5031139;28;20205;-72
2024/01/08 05:58:54;;;;;;;6.73;1.27;;;2.30;99.90;;;;;;5031322;28;20299;-72
2024/01/08 06:01:21;;;;;;;8.23;1.77;;;2.30;76.40;;;;;;5039249;28;20173;-72
2024/01/08 06:03:46;;;;;;;3.07;1.50;;;2.40;38.20;;;;;;5050802;28;20173;-72
2024/01/08 06:06:13;;;;;;;3.83;1.47;;;2.40;10.80;;;;;;5037893;28;20256;-72
2024/01/08 06:08:40;;;;;;;4.67;1.20;;;2.40;1.00;;;;;;5030958;28;20178;-73
2024/01/08 06:11:09;;;;;;;7.73;1.43;;;2.50;1.00;;;;;;5031648;28;20186;-73
2024/01/08 06:13:39;;;;;;;5.97;1.50;;;2.50;1.00;;;;;;5034642;28;20257;-73
2024/01/08 06:16:05;;;;;;;3.87;1.50;;;2.50;1.00;;;;;;5033226;28;20628;-73
2024/01/08 06:18:31;;;;;;;7.30;1.40;;;2.50;1.00;;;;;;5048305;28;20185;-73
2024/01/08 06:20:58;;;;;;;3.17;1.53;;;2.60;1.00;;;;;;5054527;28;20655;-73
2024/01/08 06:23:23;;;;;;;5.17;1.20;;;2.60;1.00;;;;;;5054125;28;20173;-74
2024/01/08 06:25:49;;;;;;;3.67;1.27;;;2.60;1.00;;;;;;5054388;28;20180;-74
2024/01/08 06:28:15;;;;;;;7.23;1.30;;;2.60;1.00;;;;;;5054178;28;20180;-73
2024/01/08 06:30:43;;;;;;;6.27;1.37;;;2.50;1.00;;;;;;5054304;28;20215;-74
2024/01/08 06:33:08;;;;;;;7.77;1.67;;;2.50;1.00;;;;;;5068867;28;20168;-73
2024/01/08 06:35:34;;;;;;;7.70;1.70;;;2.40;1.00;;;;;;5074136;28;20571;-74
2024/01/08 06:38:00;;;;;;;3.93;1.40;;;2.40;1.00;;;;;;5074140;28;20531;-74
2024/01/08 06:40:27;;;;;;;5.53;1.40;;;2.40;1.00;;;;;;5074056;28;20179;-74
2024/01/08 06:42:52;;;;;;;9.13;1.50;;;2.30;1.00;;;;;;5069405;28;20713;-74
2024/01/08 06:45:18;;;;;;;3.23;1.30;;;2.30;1.00;;;;;;5033787;28;20317;-74
2024/01/08 06:47:44;;;;;;;4.80;1.30;;;2.30;1.00;;;;;;5034316;28;20166;-74
2024/01/08 06:50:10;;;;;;;4.87;1.30;;;2.20;1.00;;;;;;5034110;28;20589;-74
2024/01/08 06:52:36;;;;;;;6.93;1.77;;;2.30;1.00;;;;;;5037978;28;20178;-74
2024/01/08 06:55:02;;;;;;;4.93;2.23;;;2.30;1.00;;;;;;5034015;28;20980;-74
2024/01/08 06:57:27;;;;;;;7.07;1.67;;;2.30;1.00;;;;;;5037470;28;20193;-74
2024/01/08 06:59:53;;;;;;;5.47;1.63;;;2.40;1.00;;;;;;5045831;28;20238;-73
2024/01/08 07:02:18;;;;;;;8.27;1.80;;;2.40;1.00;;;;;;5053788;28;20179;-74
2024/01/08 07:04:44;;;;;;;7.30;1.67;;;2.40;1.00;;;;;;5053685;28;20176;-73
2024/01/08 07:07:10;;;;;;;4.47;1.80;;;2.50;1.00;;;;;;5053821;28;20234;-74
2024/01/08 07:09:35;;;;;;;6.63;1.80;;;2.50;50.70;;;;;;5053579;28;20204;-74
2024/01/08 07:12:02;;;;;;;9.97;2.10;;;2.50;80.60;;;;;;5053463;28;20177;-73
2024/01/08 07:14:28;;;;;;;6.03;2.23;;;2.60;99.90;;;;;;5053650;28;20213;-73
2024/01/08 07:16:54;;;;;;;6.53;1.87;;;2.60;99.90;;;;;;5053308;28;20662;-73
2024/01/08 07:19:19;;;;;;;14.30;2.57;;;2.60;99.90;;;;;;5053397;28;20180;-73
2024/01/08 07:21:45;;;;;;;6.50;2.13;;;2.60;99.90;;;;;;5053320;28;20169;-74
2024/01/08 07:24:12;;;;;;;4.60;2.03;;;2.60;99.90;;;;;;5053315;28;20644;-74
2024/01/08 07:26:37;;;;;;;5.97;2.10;;;2.60;99.90;;;;;;5053266;28;20181;-74
2024/01/08 07:29:03;;;;;;;8.77;2.20;;;2.60;99.90;;;;;;5053276;28;20248;-74
2024/01/08 07:31:32;;;;;;;5.17;1.90;;;2.50;99.90;;;;;;5053358;28;20177;-73
2024/01/08 07:33:58;;;;;;;10.93;2.50;;;2.50;99.90;;;;;;5053133;28;20165;-74
2024/01/08 07:36:25;;;;;;;4.80;2.33;;;2.50;99.90;;;;;;5052994;28;20209;-73
2024/01/08 07:38:51;;;;;;;4.63;2.20;;;2.40;99.90;;;;;;5052772;28;20259;-73
2024/01/08 07:41:17;;;;;;;12.77;2.50;;;2.40;99.90;;;;;;5052969;28;20197;-73
2024/01/08 07:43:43;;;;;;;10.77;2.20;;;2.30;99.90;;;;;;5051733;28;20172;-73
2024/01/08 07:46:09;;;;;;;6.53;2.30;;;2.20;99.90;;;;;;5052926;28;20264;-73
2024/01/08 07:48:34;;;;;;;5.50;1.97;;;2.20;99.90;;;;;;5052797;28;20196;-72
2024/01/08 07:51:00;;;;;;;13.07;2.50;;;2.10;99.90;;;;;;5052623;28;20225;-73
2024/01/08 07:53:26;;;;;;;10.63;2.17;;;2.10;99.90;;;;;;5052619;28;20276;-73
2024/01/08 07:55:52;;;;;;;8.07;2.37;;;2.00;99.90;;;;;;5044313;28;20412;-71
2024/01/08 07:58:18;;;;;;;8.03;2.50;;;2.00;99.90;;;;;;5048246;28;20160;-71
2024/01/08 08:00:43;;;;;;;7.00;2.10;;;2.00;99.90;;;;;;5052515;28;20596;-71
2024/01/08 08:03:09;;;;;;;4.80;2.03;;;1.90;99.90;;;;;;5052607;28;20180;-71
2024/01/08 08:05:35;;;;;;;7.57;2.20;;;1.80;99.90;;;;;;5052625;28;20200;-71
2024/01/08 08:08:01;;;;;;;3.20;2.10;;;1.80;99.90;;;;;;5052463;28;20173;-72
2024/01/08 08:10:26;;;;;;;10.17;2.50;;;1.80;99.90;;;;;;5052516;28;20169;-71
2024/01/08 08:12:52;;;;;;;6.83;2.63;;;1.80;99.90;;;;;;5052592;28;20220;-71
2024/01/08 08:15:20;;;;;;;11.73;2.27;;;1.80;99.90;;;;;;5052247;28;20549;-71
2024/01/08 08:17:45;;;;;;;4.43;2.07;;;1.80;99.90;;;;;;5050986;28;20173;-71
2024/01/08 08:20:11;;;;;;;4.73;2.00;;;1.80;99.90;;;;;;5050962;28;20200;-71
2024/01/08 08:22:37;;;;;;;8.17;2.10;;;1.90;99.90;;;;;;5050549;28;20177;-71
2024/01/08 08:25:03;;;;;;;5.10;1.93;;;1.90;99.90;;;;;;5046860;28;20177;-71
2024/01/08 08:27:29;;;;;;;4.53;1.80;;;1.90;99.90;;;;;;5052275;28;20201;-72
2024/01/08 08:29:55;;;;;;;3.97;1.93;;;2.00;99.90;;;;;;5052122;28;20196;-72
2024/01/08 08:32:21;;;;;;;5.27;2.17;;;2.10;99.90;;;;;;5051911;28;20667;-71
2024/01/08 08:34:48;;;;;;;3.63;1.70;;;2.20;99.90;;;;;;5049867;28;20201;-72
2024/01/08 08:37:14;;;;;;;3.13;1.60;;;2.30;99.90;;;;;;5051659;28;20177;-72
2024/01/08 08:39:40;;;;;;;5.63;1.67;;;2.30;82.30;;;;;;5051786;28;20286;-71
2024/01/08 08:42:07;;;;;;;4.63;1.87;;;2.50;48.50;;;;;;5042843;28;20174;-72
2024/01/08 08:44:33;;;;;;;4.23;1.90;;;2.60;1.00;;;;;;5038319;28;20311;-73
2024/01/08 08:46:59;;;;;;;4.73;1.60;;;2.70;1.00;;;;;;5051498;28;20218;-72
2024/01/08 08:49:25;;;;;;;5.13;1.73;;;2.80;1.00;;;;;;5050030;28;20539;-71
2024/01/08 08:51:51;;;;;;;8.93;1.80;;;3.00;1.00;;;;;;5051399;28;20240;-71
2024/01/08 08:54:17;;;;;;;5.10;2.00;;;3.10;1.00;;;;;;5033272;28;20259;-71
2024/01/08 08:56:42;;;;;;;6.60;1.80;;;3.20;99.90;;;;;;5031603;28;20252;-71
2024/01/08 08:59:09;;;;;;;7.40;1.90;;;3.30;1.00;;;;;;5034587;28;20178;-72
2024/01/08 09:01:35;;;;;;;3.30;1.50;;;4.00;1.00;;;;;;5049127;28;20173;-72
2024/01/08 09:04:01;;;;;;;7.33;1.80;;;4.90;1.00;;;;;;5046934;28;20177;-72
2024/01/08 09:06:27;;;;;;;5.70;1.60;;;5.00;23.60;;;;;;5031265;28;20205;-72
2024/01/08 09:08:57;;;;;;;5.80;1.80;;;4.70;1.00;;;;;;5031585;28;20277;-72
2024/01/08 09:11:23;;;;;;;4.03;1.57;;;4.70;99.90;;;;;;5031509;28;20177;-73
2024/01/08 09:13:49;;;;;;;5.87;1.40;;;4.40;99.90;;;;;;5051355;28;20549;-72
2024/01/08 09:16:15;;;;;;;3.67;1.17;;;4.20;99.90;;;;;;5045967;28;20216;-72
2024/01/08 09:18:42;;;;;;;4.83;1.20;;;4.00;99.90;;;;;;5029960;28;20552;-72
2024/01/08 09:21:09;;;;;;;3.70;1.20;;;4.00;1.00;;;;;;5031910;28;20177;-72
2024/01/08 09:23:34;;;;;;;3.77;1.00;;;3.90;99.90;;;;;;5031348;28;20272;-73
2024/01/08 09:26:00;;;;;;;3.00;0.83;;;3.90;99.90;;;;;;5037215;28;20598;-73
2024/01/08 09:28:26;;;;;;;5.10;1.20;;;3.90;99.90;;;;;;5041233;28;20675;-75
2024/01/08 09:30:54;;;;;;;3.93;1.13;;;4.00;99.90;;;;;;5031125;28;20264;-75
2024/01/08 09:33:20;;;;;;;9.83;1.10;;;3.90;1.00;;;;;;5029695;28;20178;-74
2024/01/08 09:35:46;;;;;;;2.30;1.10;;;3.90;99.90;;;;;;5030911;28;20707;-73
2024/01/08 09:38:12;;;;;;;3.43;1.10;;;4.00;99.90;;;;;;5032245;28;20170;-74
2024/01/08 09:40:37;;;;;;;4.20;1.17;;;4.00;1.00;;;;;;5043752;28;20170;-74
2024/01/08 09:43:09;;;;;;;6.30;1.20;;;4.00;1.00;;;;;;5040228;28;20238;-73
2024/01/08 09:45:43;;;;;;;2.90;0.97;;;4.10;1.00;;;;;;5051098;28;20303;-74
2024/01/08 09:48:10;;;;;;;5.50;1.57;;;4.00;1.00;;;;;;5055148;28;20243;-73
2024/01/08 09:50:38;;;;;;;3.50;1.03;;;4.10;54.20;;;;;;5055272;28;20224;-72
2024/01/08 09:53:04;;;;;;;2.50;0.90;;;4.10;1.00;;;;;;5053270;28;20184;-72
2024/01/08 09:55:30;;;;;;;6.40;1.27;;;4.10;1.00;;;;;;5040669;28;20217;-71
2024/01/08 09:57:56;;;;;;;4.80;1.50;;;4.20;1.00;;;;;;5035009;28;20537;-74
2024/01/08 10:00:22;;;;;;;2.97;1.13;;;4.20;1.00;;;;;;5035072;28;20180;-75
2024/01/08 10:02:57;;;;;;;1.77;0.97;;;4.20;1.00;;;;;;5035545;28;20269;-74
2024/01/08 10:05:27;;;;;;;4.90;1.23;;;4.20;46.60;;;;;;5049074;28;20177;-74
2024/01/08 10:07:52;;;;;;;1.67;0.97;;;4.20;99.90;;;;;;5053842;28;20183;-75
2024/01/08 10:10:20;;;;;;;4.47;1.10;;;4.20;1.00;;;;;;5053138;28;20605;-75
2024/01/08 10:12:49;;;;;;;4.40;1.20;;;4.30;1.00;;;;;;5052652;28;20264;-74
2024/01/08 10:15:18;;;;;;;2.30;0.97;;;4.30;98.00;;;;;;5050307;28;20208;-74
2024/01/08 10:17:48;;;;;;;3.50;1.00;;;4.40;99.90;;;;;;5052712;28;20171;-74
2024/01/08 10:20:15;;;;;;;1.83;0.87;;;4.40;99.90;;;;;;5053080;28;20204;-74
2024/01/08 10:22:41;;;;;;;2.37;1.10;;;4.40;1.00;;;;;;5053754;28;20355;-74
2024/01/08 10:25:07;;;;;;;2.13;1.00;;;4.40;99.90;;;;;;5054502;28;20644;-74
2024/01/08 10:27:33;;;;;;;8.43;1.17;;;4.40;99.90;;;;;;5054402;28;20181;-74
2024/01/08 10:29:59;;;;;;;3.63;1.00;;;4.40;99.90;;;;;;5054364;28;20176;-74
2024/01/08 10:32:25;;;;;;;4.47;1.20;;;4.40;99.90;;;;;;5054241;28;20188;-74
2024/01/08 10:34:51;;;;;;;6.03;1.00;;;4.50;99.90;;;;;;5054342;28;20213;-74
2024/01/08 10:37:18;;;;;;;6.43;1.07;;;4.50;99.90;;;;;;5054454;28;20169;-74
2024/01/08 10:39:47;;;;;;;4.10;1.03;;;4.40;99.90;;;;;;5054220;28;20169;-74
2024/01/08 10:42:13;;;;;;;3.87;0.93;;;4.50;99.90;;;;;;5054161;28;20173;-74
2024/01/08 10:44:39;;;;;;;4.93;1.33;;;4.50;1.00;;;;;;5054115;28;20168;-74
2024/01/08 10:47:16;;;;;;;5.47;1.37;;;4.50;99.90;;;;;;5054101;28;20600;-74
2024/01/08 10:49:49;;;;;;;4.03;0.97;;;4.50;99.90;;;;;;5054129;28;20184;-74
2024/01/08 10:52:29;;;;;;;4.67;1.17;;;4.60;1.00;;;;;;5053765;28;20221;-74
2024/01/08 10:54:57;;;;;;;4.30;1.40;;;4.60;1.00;;;;;;5053781;28;20314;-76
2024/01/08 10:57:38;;;;;;;5.07;1.30;;;4.60;95.10;;;;;;5053222;28;20201;-75
2024/01/08 11:00:14;;;;;;;9.13;1.67;;;4.60;1.00;;;;;;5053628;28;20185;-75
2024/01/08 11:02:41;;;;;;;8.93;1.67;;;4.50;99.90;;;;;;5053299;28;20176;-75
2024/01/08 11:05:09;;;;;;;6.57;1.80;;;4.60;1.00;;;;;;5051799;28;20197;-74
2024/01/08 11:07:40;;;;;;;6.90;1.63;;;4.60;1.00;;;;;;5052036;28;20169;-75
2024/01/08 11:10:07;;;;;;;8.37;2.00;;;4.60;1.00;;;;;;5052150;28;20177;-75
2024/01/08 11:12:38;;;;;;;5.83;1.60;;;4.70;99.90;;;;;;5051972;28;20177;-75
2024/01/08 11:15:05;;;;;;;5.77;1.70;;;4.80;1.00;;;;;;5051674;28;20262;-74
2024/01/08 11:17:32;;;;;;;5.33;1.67;;;4.90;99.90;;;;;;5051788;28;20173;-75
2024/01/08 11:19:59;;;;;;;6.33;1.70;;;4.90;30.10;;;;;;5053289;28;20517;-74
2024/01/08 11:22:25;;;;;;;3.40;1.53;;;5.00;99.90;;;;;;5053463;28;20169;-74
2024/01/08 11:25:01;;;;;;;7.50;2.10;;;5.00;99.90;;;;;;5040713;28;20269;-74
2024/01/08 11:27:26;;;;;;;7.60;2.00;;;4.90;1.00;;;;;;5052277;28;20676;-75
2024/01/08 11:30:01;;;;;;;5.43;1.60;;;4.80;99.90;;;;;;5050978;28;20291;-75
2024/01/08 11:32:51;;;;;;;5.97;1.57;;;4.80;99.90;;;;;;5041950;28;20658;-74
2024/01/08 11:35:20;;;;;;;3.23;1.13;;;4.80;1.00;;;;;;5033131;28;20209;-74
2024/01/08 11:38:16;;;;;;;3.43;0.97;;;4.70;1.00;;;;;;5033235;28;20233;-73
2024/01/08 11:40:42;;;;;;;4.40;1.53;;;4.70;1.00;;;;;;5027216;28;20193;-74
2024/01/08 11:43:08;;;;;;;2.33;1.00;;;4.60;99.90;;;;;;5046336;28;20177;-75
2024/01/08 11:45:34;;;;;;;6.93;1.20;;;4.60;99.90;;;;;;5051208;28;20211;-74
2024/01/08 11:48:01;;;;;;;4.37;1.07;;;4.60;1.00;;;;;;5033508;28;20209;-74
2024/01/08 11:50:27;;;;;;;3.53;1.37;;;4.60;1.00;;;;;;5032850;28;20316;-74
2024/01/08 11:52:58;;;;;;;2.23;1.03;;;4.50;1.00;;;;;;5032800;28;20206;-73
2024/01/08 11:55:24;;;;;;;2.77;1.30;;;4.50;99.90;;;;;;5032458;28;20217;-74
2024/01/08 11:57:49;;;;;;;6.57;1.10;;;4.50;99.90;;;;;;5033678;28;20245;-74
2024/01/08 12:00:19;;;;;;;5.80;1.13;;;4.50;99.90;;;;;;5052629;28;20216;-73
2024/01/08 12:02:46;;;;;;;2.13;1.00;;;4.50;1.00;;;;;;5052678;28;20168;-73
2024/01/08 12:05:13;;;;;;;2.87;1.00;;;4.50;1.00;;;;;;5052423;28;20180;-75
2024/01/08 12:07:39;;;;;;;4.80;1.30;;;4.40;1.00;;;;;;5051078;28;20173;-75
2024/01/08 12:10:08;;;;;;;3.80;1.10;;;4.40;1.00;;;;;;5051479;28;20176;-76
2024/01/08 12:12:35;;;;;;;3.73;1.00;;;4.40;1.00;;;;;;5052478;28;20188;-75
2024/01/08 12:15:01;;;;;;;3.50;1.20;;;4.40;99.90;;;;;;5052302;28;20217;-75
2024/01/08 12:17:27;;;;;;;5.40;1.17;;;4.40;1.00;;;;;;5052172;28;20540;-75
2024/01/08 12:19:55;;;;;;;4.67;1.00;;;4.40;1.00;;;;;;5052268;28;20184;-75
2024/01/08 12:22:22;;;;;;;3.30;0.90;;;4.40;1.00;;;;;;5052232;28;20201;-74
2024/01/08 12:24:53;;;;;;;2.33;0.90;;;4.40;99.90;;;;;;5050881;28;20173;-74
2024/01/08 12:27:30;;;;;;;5.67;1.47;;;4.50;1.00;;;;;;5052055;28;20174;-73
2024/01/08 12:29:57;;;;;;;4.83;1.10;;;4.50;1.00;;;;;;5052002;28;20169;-73
2024/01/08 12:32:24;;;;;;;6.80;1.30;;;4.50;1.00;;;;;;5052045;28;20596;-74
2024/01/08 12:34:50;;;;;;;3.80;1.50;;;4.60;99.90;;;;;;5052016;28;20296;-73
2024/01/08 12:37:17;;;;;;;2.00;1.20;;;4.50;6.40;;;;;;5051941;28;20195;-76
2024/01/08 12:39:44;;;;;;;5.63;1.00;;;4.50;99.90;;;;;;5052141;28;20173;-73
2024/01/08 12:42:14;;;;;;;4.63;1.40;;;4.50;99.90;;;;;;5052146;28;20173;-74
2024/01/08 12:44:41;;;;;;;6.80;1.30;;;4.40;99.90;;;;;;5052035;28;20219;-74
2024/01/08 12:47:07;;;;;;;9.77;1.80;;;4.40;99.90;;;;;;5051817;28;20187;-73
2024/01/08 12:49:36;;;;;;;6.97;1.80;;;4.40;99.90;;;;;;5051359;28;20184;-72
2024/01/08 12:52:03;;;;;;;7.80;1.50;;;4.40;1.00;;;;;;5049918;28;20316;-75
2024/01/08 12:54:36;;;;;;;4.67;1.27;;;4.40;1.00;;;;;;5051841;28;20184;-74
2024/01/08 12:57:03;;;;;;;6.67;1.43;;;4.40;1.00;;;;;;5051910;28;20187;-74